createdAt,value
2023-02-06T00:00:39.354Z,0.91
2023-02-06T00:01:39.340Z,0.85
2023-02-06T00:02:39.485Z,0.84
2023-02-06T00:03:39.354Z,0.86
2023-02-06T00:04:39.362Z,0.81
2023-02-06T00:05:40.201Z,0.78
2023-02-06T00:06:39.429Z,0.81
2023-02-06T00:07:42.101Z,0.78
2023-02-06T00:08:39.333Z,0.74
2023-02-06T00:09:39.349Z,0.64
2023-02-06T00:10:39.400Z,0.66
2023-02-06T00:11:39.392Z,0.81
2023-02-06T00:12:39.350Z,0.76
2023-02-06T00:13:39.387Z,0.71
2023-02-06T00:14:39.392Z,0.73
2023-02-06T00:15:40.774Z,0.66
2023-02-06T00:16:39.362Z,0.67
2023-02-06T00:17:39.363Z,0.67
2023-02-06T00:18:42.462Z,0.73
2023-02-06T00:19:39.386Z,0.67
2023-02-06T00:20:39.360Z,0.68
2023-02-06T00:21:39.401Z,0.66
2023-02-06T00:22:39.389Z,0.7
2023-02-06T00:23:39.371Z,0.66
2023-02-06T00:24:39.408Z,0.73
2023-02-06T00:25:40.154Z,0.68
2023-02-06T00:26:39.382Z,0.7
2023-02-06T00:27:39.410Z,0.58
2023-02-06T00:28:39.375Z,0.52
2023-02-06T00:29:41.282Z,0.52
2023-02-06T00:30:39.484Z,0.51
2023-02-06T00:31:39.626Z,0.58
2023-02-06T00:32:39.535Z,0.48
2023-02-06T00:33:39.412Z,0.49
2023-02-06T00:34:39.426Z,0.44
2023-02-06T00:35:39.975Z,0.37
2023-02-06T00:36:39.413Z,0.29
2023-02-06T00:37:39.421Z,0.3
2023-02-06T00:38:39.423Z,0.24
2023-02-06T00:39:39.415Z,0.27
2023-02-06T00:40:42.136Z,0.29
2023-02-06T00:41:42.388Z,0.24
2023-02-06T00:42:39.402Z,0.3
2023-02-06T00:43:39.437Z,0.3
2023-02-06T00:44:39.481Z,0.33
2023-02-06T00:45:40.207Z,0.27
2023-02-06T00:46:39.577Z,0.34
2023-02-06T00:47:39.817Z,0.33
2023-02-06T00:48:39.434Z,0.31
2023-02-06T00:49:39.453Z,0.29
2023-02-06T00:50:39.429Z,0.19
2023-02-06T00:51:42.280Z,0.24
2023-02-06T00:52:39.426Z,0.2
2023-02-06T00:53:39.410Z,0.15
2023-02-06T00:54:39.461Z,0.16
2023-02-06T00:55:39.959Z,0.16
2023-02-06T00:56:39.417Z,0.12
2023-02-06T00:57:39.422Z,0.09
2023-02-06T00:58:39.439Z,0.09
2023-02-06T00:59:39.491Z,0.11
2023-02-06T01:00:39.434Z,0.12
2023-02-06T01:01:39.588Z,0.08
2023-02-06T01:02:42.732Z,0.09
2023-02-06T01:03:39.451Z,0.05
2023-02-06T01:04:39.472Z,0.05
2023-02-06T01:05:40.423Z,-0.03
2023-02-06T01:06:39.436Z,-0.02
2023-02-06T01:07:42.279Z,0.01
2023-02-06T01:08:39.447Z,0.05
2023-02-06T01:09:39.466Z,-0.02
2023-02-06T01:10:39.484Z,0.05
2023-02-06T01:11:39.446Z,0.11
2023-02-06T01:12:39.448Z,-0.06
2023-02-06T01:13:42.207Z,-0.03
2023-02-06T01:14:39.469Z,-0.06
2023-02-06T01:15:40.019Z,-0.07
2023-02-06T01:16:39.442Z,-0.12
2023-02-06T01:17:39.450Z,-0.18
2023-02-06T01:18:42.266Z,-0.1
2023-02-06T01:19:39.482Z,-0.05
2023-02-06T01:20:39.477Z,-0.13
2023-02-06T01:21:39.446Z,-0.07
2023-02-06T01:22:39.467Z,-0.06
2023-02-06T01:23:39.474Z,-0.09
2023-02-06T01:24:43.018Z,-0.1
2023-02-06T01:25:40.218Z,-0.17
2023-02-06T01:26:39.479Z,-0.21
2023-02-06T01:27:39.510Z,-0.17
2023-02-06T01:28:39.459Z,-0.26
2023-02-06T01:29:42.260Z,-0.21
2023-02-06T01:30:39.654Z,-0.15
2023-02-06T01:31:39.657Z,-0.36
2023-02-06T01:32:39.477Z,-0.33
2023-02-06T01:33:39.483Z,-0.35
2023-02-06T01:34:39.677Z,-0.38
2023-02-06T01:35:40.044Z,-0.48
2023-02-06T01:36:39.494Z,-0.39
2023-02-06T01:37:39.475Z,-0.45
2023-02-06T01:38:39.526Z,-0.38
2023-02-06T01:39:39.480Z,-0.45
2023-02-06T01:40:39.500Z,-0.46
2023-02-06T01:41:39.492Z,-0.49
2023-02-06T01:42:39.533Z,-0.41
2023-02-06T01:43:39.502Z,-0.42
2023-02-06T01:44:39.484Z,-0.39
2023-02-06T01:45:40.340Z,-0.46
2023-02-06T01:46:39.618Z,-0.35
2023-02-06T01:47:39.519Z,-0.35
2023-02-06T01:48:39.498Z,-0.26
2023-02-06T01:49:39.503Z,-0.3
2023-02-06T01:50:39.614Z,-0.24
2023-02-06T01:51:39.526Z,-0.21
2023-02-06T01:52:39.507Z,-0.2
2023-02-06T01:53:39.560Z,-0.21
2023-02-06T01:54:39.526Z,-0.26
2023-02-06T01:55:40.506Z,-0.35
2023-02-06T01:56:42.284Z,-0.45
2023-02-06T01:57:39.500Z,-0.36
2023-02-06T01:58:39.540Z,-0.41
2023-02-06T01:59:39.519Z,-0.41
2023-02-06T02:00:39.679Z,-0.49
2023-02-06T02:01:39.553Z,-0.45
2023-02-06T02:02:39.532Z,-0.63
2023-02-06T02:03:39.533Z,-0.56
2023-02-06T02:04:39.524Z,-0.54
2023-02-06T02:05:40.370Z,-0.46
2023-02-06T02:06:39.539Z,-0.56
2023-02-06T02:07:42.303Z,-0.6
2023-02-06T02:08:39.526Z,-0.54
2023-02-06T02:09:39.538Z,-0.56
2023-02-06T02:10:39.538Z,-0.62
2023-02-06T02:11:39.539Z,-0.54
2023-02-06T02:12:42.554Z,-0.6
2023-02-06T02:13:39.548Z,-0.53
2023-02-06T02:14:39.555Z,-0.57
2023-02-06T02:15:40.026Z,-0.67
2023-02-06T02:16:39.659Z,-0.74
2023-02-06T02:17:39.553Z,-0.75
2023-02-06T02:18:39.544Z,-0.84
2023-02-06T02:19:39.563Z,-0.69
2023-02-06T02:20:39.570Z,-0.77
2023-02-06T02:21:39.545Z,-0.7
2023-02-06T02:22:39.578Z,-0.7
2023-02-06T02:23:42.358Z,-0.66
2023-02-06T02:24:39.535Z,-0.69
2023-02-06T02:25:40.579Z,-0.69
2023-02-06T02:26:39.558Z,-0.64
2023-02-06T02:27:39.559Z,-0.64
2023-02-06T02:28:39.555Z,-0.64
2023-02-06T02:30:39.748Z,-0.77
2023-02-06T02:31:39.705Z,-0.67
2023-02-06T02:32:39.586Z,-0.64
2023-02-06T02:33:39.580Z,-0.64
2023-02-06T02:34:42.720Z,-0.66
2023-02-06T02:35:40.522Z,-0.63
2023-02-06T02:36:39.605Z,-0.57
2023-02-06T02:37:39.592Z,-0.62
2023-02-06T02:38:39.717Z,-0.56
2023-02-06T02:39:39.577Z,-0.64
2023-02-06T02:40:39.648Z,-0.53
2023-02-06T02:41:39.588Z,-0.54
2023-02-06T02:42:39.601Z,-0.56
2023-02-06T02:43:39.606Z,-0.62
2023-02-06T02:44:39.735Z,-0.7
2023-02-06T02:45:43.065Z,-0.66
2023-02-06T02:46:39.619Z,-0.7
2023-02-06T02:47:39.598Z,-0.75
2023-02-06T02:48:39.586Z,-0.72
2023-02-06T02:49:39.587Z,-0.75
2023-02-06T02:50:39.616Z,-0.91
2023-02-06T02:51:39.472Z,-0.77
2023-02-06T02:52:39.598Z,-0.75
2023-02-06T02:53:39.589Z,-0.97
2023-02-06T02:54:39.631Z,-0.82
2023-02-06T02:55:40.574Z,-0.87
2023-02-06T02:56:42.390Z,-1
2023-02-06T02:57:39.593Z,-0.94
2023-02-06T02:58:39.609Z,-0.96
2023-02-06T02:59:39.800Z,-0.94
2023-02-06T03:00:39.702Z,-1.01
2023-02-06T03:01:39.636Z,-0.91
2023-02-06T03:02:39.630Z,-0.85
2023-02-06T03:03:39.619Z,-1.01
2023-02-06T03:04:39.624Z,-1
2023-02-06T03:05:40.327Z,-0.94
2023-02-06T03:06:39.654Z,-0.94
2023-02-06T03:07:45.854Z,-0.94
2023-02-06T03:08:39.607Z,-1.09
2023-02-06T03:09:39.621Z,-1.15
2023-02-06T03:10:39.665Z,-1.17
2023-02-06T03:11:39.627Z,-1.22
2023-02-06T03:12:39.607Z,-1.22
2023-02-06T03:13:39.670Z,-1.27
2023-02-06T03:14:39.626Z,-1.29
2023-02-06T03:15:40.467Z,-1.36
2023-02-06T03:16:39.793Z,-1.29
2023-02-06T03:17:39.652Z,-1.29
2023-02-06T03:18:42.764Z,-1.27
2023-02-06T03:19:42.362Z,-1.25
2023-02-06T03:20:39.669Z,-1.27
2023-02-06T03:21:39.621Z,-1.3
2023-02-06T03:22:39.672Z,-1.29
2023-02-06T03:23:45.007Z,-1.35
2023-02-06T03:24:39.642Z,-1.32
2023-02-06T03:25:40.340Z,-1.25
2023-02-06T03:26:39.690Z,-1.24
2023-02-06T03:27:39.660Z,-1.21
2023-02-06T03:28:39.659Z,-1.29
2023-02-06T03:29:42.404Z,-1.19
2023-02-06T03:30:39.803Z,-1.24
2023-02-06T03:31:39.806Z,-1.3
2023-02-06T03:32:39.654Z,-1.19
2023-02-06T03:33:39.741Z,-1.27
2023-02-06T03:34:42.504Z,-1.27
2023-02-06T03:35:40.460Z,-1.4
2023-02-06T03:36:39.673Z,-1.39
2023-02-06T03:37:39.673Z,-1.42
2023-02-06T03:38:39.657Z,-1.3
2023-02-06T03:39:39.697Z,-1.29
2023-02-06T03:40:42.859Z,-1.42
2023-02-06T03:41:39.657Z,-1.38
2023-02-06T03:42:39.727Z,-1.35
2023-02-06T03:43:39.681Z,-1.45
2023-02-06T03:44:39.708Z,-1.46
2023-02-06T03:45:43.553Z,-1.5
2023-02-06T03:46:39.700Z,-1.54
2023-02-06T03:47:39.665Z,-1.56
2023-02-06T03:48:39.738Z,-1.53
2023-02-06T03:49:39.722Z,-1.58
2023-02-06T03:50:39.722Z,-1.46
2023-02-06T03:51:42.812Z,-1.57
2023-02-06T03:52:39.702Z,-1.53
2023-02-06T03:53:39.689Z,-1.4
2023-02-06T03:54:39.679Z,-1.43
2023-02-06T03:55:40.424Z,-1.48
2023-02-06T03:56:42.545Z,-1.29
2023-02-06T03:57:39.686Z,-1.3
2023-02-06T03:58:39.774Z,-1.38
2023-02-06T03:59:39.699Z,-1.25
2023-02-06T04:00:39.781Z,-1.38
2023-02-06T04:01:39.821Z,-1.18
2023-02-06T04:02:39.801Z,-1.24
2023-02-06T04:03:39.775Z,-1.14
2023-02-06T04:04:39.711Z,-1.01
2023-02-06T04:05:41.614Z,-1
2023-02-06T04:06:39.719Z,-1.09
2023-02-06T04:07:39.751Z,-1.04
2023-02-06T04:08:39.728Z,-1.07
2023-02-06T04:09:39.712Z,-0.91
2023-02-06T04:10:39.753Z,-0.82
2023-02-06T04:11:39.767Z,-0.99
2023-02-06T04:12:39.724Z,-1.03
2023-02-06T04:13:39.724Z,-0.96
2023-02-06T04:14:39.728Z,-0.93
2023-02-06T04:15:40.496Z,-0.85
2023-02-06T04:16:39.875Z,-0.84
2023-02-06T04:18:03.471Z,-0.84
2023-02-06T04:18:39.731Z,-0.78
2023-02-06T04:19:39.733Z,-0.85
2023-02-06T04:20:42.500Z,-0.82
2023-02-06T04:21:39.771Z,-0.77
2023-02-06T04:22:39.721Z,-0.81
2023-02-06T04:23:42.672Z,-0.8
2023-02-06T04:24:39.736Z,-0.69
2023-02-06T04:25:40.731Z,-0.69
2023-02-06T04:26:39.801Z,-0.64
2023-02-06T04:27:39.793Z,-0.59
2023-02-06T04:28:39.761Z,-0.59
2023-02-06T04:29:39.764Z,-0.66
2023-02-06T04:30:39.957Z,-0.66
2023-02-06T04:31:39.955Z,-0.78
2023-02-06T04:32:39.804Z,-0.59
2023-02-06T04:33:39.760Z,-0.64
2023-02-06T04:34:39.742Z,-0.62
2023-02-06T04:35:40.557Z,-0.66
2023-02-06T04:36:39.832Z,-0.67
2023-02-06T04:37:39.753Z,-0.62
2023-02-06T04:38:40.796Z,-0.54
2023-02-06T04:39:42.682Z,-0.48
2023-02-06T04:40:42.574Z,-0.49
2023-02-06T04:41:39.799Z,-0.39
2023-02-06T04:42:39.798Z,-0.42
2023-02-06T04:43:39.862Z,-0.35
2023-02-06T04:44:39.773Z,-0.38
2023-02-06T04:45:43.838Z,-0.39
2023-02-06T04:46:39.801Z,-0.35
2023-02-06T04:47:39.788Z,-0.38
2023-02-06T04:48:39.836Z,-0.36
2023-02-06T04:49:39.776Z,-0.3
2023-02-06T04:50:42.824Z,-0.3
2023-02-06T04:51:39.811Z,-0.28
2023-02-06T04:52:39.836Z,-0.27
2023-02-06T04:53:39.805Z,-0.3
2023-02-06T04:54:39.782Z,-0.26
2023-02-06T04:55:40.439Z,-0.3
2023-02-06T04:56:39.838Z,-0.26
2023-02-06T04:57:39.906Z,-0.17
2023-02-06T04:58:39.802Z,-0.12
2023-02-06T04:59:39.830Z,-0.17
2023-02-06T05:00:41.564Z,-0.2
2023-02-06T05:01:42.997Z,-0.15
2023-02-06T05:02:40.135Z,-0.13
2023-02-06T05:03:39.830Z,-0.21
2023-02-06T05:04:39.815Z,-0.21
2023-02-06T05:05:40.237Z,-0.13
2023-02-06T05:06:39.837Z,-0.13
2023-02-06T05:07:39.805Z,-0.13
2023-02-06T05:08:39.820Z,-0.13
2023-02-06T05:09:39.814Z,-0.09
2023-02-06T05:10:39.796Z,-0.13
2023-02-06T05:11:39.844Z,-0.03
2023-02-06T05:12:42.661Z,-0.15
2023-02-06T05:13:39.861Z,0.02
2023-02-06T05:14:39.810Z,0.01
2023-02-06T05:15:41.023Z,-0.03
2023-02-06T05:16:39.840Z,0.01
2023-02-06T05:17:39.870Z,-0.03
2023-02-06T05:18:39.815Z,-0.06
2023-02-06T05:19:39.829Z,0.05
2023-02-06T05:20:39.838Z,-0.03
2023-02-06T05:21:39.840Z,-0.02
2023-02-06T05:22:39.830Z,-0.03
2023-02-06T05:23:42.912Z,0.02
2023-02-06T05:24:39.824Z,0
2023-02-06T05:25:42.243Z,0.05
2023-02-06T05:26:39.892Z,0.05
2023-02-06T05:27:39.829Z,0.08
2023-02-06T05:28:40.149Z,0.08
2023-02-06T05:29:39.830Z,0.09
2023-02-06T05:30:42.694Z,0.02
2023-02-06T05:31:40.424Z,0.02
2023-02-06T05:32:39.847Z,0.09
2023-02-06T05:33:39.864Z,0.06
2023-02-06T05:34:42.855Z,0.05
2023-02-06T05:35:40.462Z,0.24
2023-02-06T05:36:39.876Z,0.09
2023-02-06T05:37:39.887Z,0.06
2023-02-06T05:38:39.896Z,0.16
2023-02-06T05:39:39.895Z,0.27
2023-02-06T05:40:39.844Z,0.12
2023-02-06T05:41:39.901Z,0.12
2023-02-06T05:42:40.061Z,0.24
2023-02-06T05:43:39.859Z,0.23
2023-02-06T05:44:39.870Z,0.18
2023-02-06T05:45:43.784Z,0.13
2023-02-06T05:46:40.079Z,0.19
2023-02-06T05:47:39.926Z,0.12
2023-02-06T05:48:39.872Z,0.15
2023-02-06T05:49:39.919Z,0.15
2023-02-06T05:50:40.636Z,0.13
2023-02-06T05:51:39.904Z,0.13
2023-02-06T05:52:39.896Z,0.15
2023-02-06T05:53:39.945Z,0.27
2023-02-06T05:54:39.874Z,0.23
2023-02-06T05:55:40.588Z,0.27
2023-02-06T05:56:43.021Z,0.27
2023-02-06T05:57:39.885Z,0.18
2023-02-06T05:58:39.766Z,0.27
2023-02-06T05:59:39.890Z,0.16
2023-02-06T06:00:39.886Z,0.26
2023-02-06T06:01:40.742Z,0.29
2023-02-06T06:02:39.871Z,0.26
2023-02-06T06:03:40.052Z,0.15
2023-02-06T06:04:40.066Z,0.19
2023-02-06T06:05:40.824Z,0.15
2023-02-06T06:06:39.948Z,0.29
2023-02-06T06:07:42.663Z,0.13
2023-02-06T06:08:39.904Z,0.16
2023-02-06T06:09:40.904Z,0.16
2023-02-06T06:10:39.904Z,0.18
2023-02-06T06:11:40.048Z,0.12
2023-02-06T06:12:43.064Z,0.18
2023-02-06T06:13:39.928Z,0.01
2023-02-06T06:14:39.900Z,0.12
2023-02-06T06:15:40.680Z,0.06
2023-02-06T06:16:40.087Z,0.18
2023-02-06T06:17:39.916Z,0.2
2023-02-06T06:18:42.926Z,0.24
2023-02-06T06:19:39.967Z,0.26
2023-02-06T06:20:39.929Z,0.29
2023-02-06T06:21:39.989Z,0.33
2023-02-06T06:22:40.114Z,0.24
2023-02-06T06:23:42.940Z,0.2
2023-02-06T06:24:39.908Z,0.29
2023-02-06T06:25:40.329Z,0.33
2023-02-06T06:26:40.010Z,0.29
2023-02-06T06:27:39.968Z,0.3
2023-02-06T06:28:39.911Z,0.2
2023-02-06T06:29:39.938Z,0.36
2023-02-06T06:30:40.477Z,0.33
2023-02-06T06:31:40.092Z,0.31
2023-02-06T06:32:39.963Z,0.31
2023-02-06T06:33:39.970Z,0.31
2023-02-06T06:34:39.927Z,0.23
2023-02-06T06:35:40.727Z,0.34
2023-02-06T06:36:39.998Z,0.3
2023-02-06T06:37:40.013Z,0.27
2023-02-06T06:38:39.952Z,0.39
2023-02-06T06:39:39.956Z,0.29
2023-02-06T06:40:39.972Z,0.23
2023-02-06T06:41:39.971Z,0.33
2023-02-06T06:42:39.955Z,0.31
2023-02-06T06:43:40.078Z,0.2
2023-02-06T06:44:39.945Z,0.2
2023-02-06T06:45:41.212Z,0.3
2023-02-06T06:46:39.978Z,0.33
2023-02-06T06:47:39.976Z,0.29
2023-02-06T06:48:39.974Z,0.26
2023-02-06T06:49:39.984Z,0.26
2023-02-06T06:50:43.002Z,0.26
2023-02-06T06:51:40.071Z,0.12
2023-02-06T06:52:40.022Z,0.18
2023-02-06T06:53:40.354Z,0.24
2023-02-06T06:54:39.990Z,0.15
2023-02-06T06:55:40.677Z,0.13
2023-02-06T06:56:39.998Z,0.06
2023-02-06T06:57:40.014Z,0.15
2023-02-06T06:58:39.984Z,0.31
2023-02-06T06:59:40.103Z,0.13
2023-02-06T07:00:41.092Z,0.15
2023-02-06T07:01:42.832Z,0.18
2023-02-06T07:02:40.108Z,0.19
2023-02-06T07:03:40.025Z,0.24
2023-02-06T07:04:40.030Z,0.31
2023-02-06T07:05:40.766Z,0.23
2023-02-06T07:06:43.021Z,0.24
2023-02-06T07:07:40.274Z,0.3
2023-02-06T07:08:40.001Z,0.33
2023-02-06T07:09:40.054Z,0.34
2023-02-06T07:10:40.034Z,0.39
2023-02-06T07:11:40.820Z,0.37
2023-02-06T07:12:40.022Z,0.4
2023-02-06T07:13:40.010Z,0.49
2023-02-06T07:14:40.029Z,0.34
2023-02-06T07:15:40.769Z,0.42
2023-02-06T07:16:40.285Z,0.44
2023-02-06T07:17:43.108Z,0.4
2023-02-06T07:18:39.986Z,0.36
2023-02-06T07:19:40.034Z,0.42
2023-02-06T07:20:40.020Z,0.37
2023-02-06T07:21:40.055Z,0.39
2023-02-06T07:22:40.055Z,0.4
2023-02-06T07:23:40.133Z,0.44
2023-02-06T07:24:40.085Z,0.42
2023-02-06T07:25:40.794Z,0.39
2023-02-06T07:26:40.098Z,0.39
2023-02-06T07:27:40.063Z,0.37
2023-02-06T07:28:42.903Z,0.3
2023-02-06T07:29:40.037Z,0.29
2023-02-06T07:30:40.210Z,0.44
2023-02-06T07:31:40.187Z,0.47
2023-02-06T07:32:40.047Z,0.42
2023-02-06T07:33:40.076Z,0.44
2023-02-06T07:34:39.867Z,0.59
2023-02-06T07:35:40.849Z,0.56
2023-02-06T07:36:40.037Z,0.55
2023-02-06T07:37:39.904Z,0.59
2023-02-06T07:38:40.061Z,0.56
2023-02-06T07:39:42.835Z,0.58
2023-02-06T07:40:52.769Z,0.59
2023-02-06T07:41:40.073Z,0.55
2023-02-06T07:42:40.069Z,0.61
2023-02-06T07:43:40.041Z,0.47
2023-02-06T07:44:40.114Z,0.55
2023-02-06T07:45:41.225Z,0.58
2023-02-06T07:46:40.058Z,0.56
2023-02-06T07:47:40.101Z,0.51
2023-02-06T07:48:40.070Z,0.64
2023-02-06T07:49:40.067Z,0.59
2023-02-06T07:50:43.128Z,0.67
2023-02-06T07:51:40.044Z,0.67
2023-02-06T07:52:40.052Z,0.71
2023-02-06T07:53:40.063Z,0.81
2023-02-06T07:54:40.076Z,0.78
2023-02-06T07:55:41.011Z,0.73
2023-02-06T07:56:40.087Z,0.74
2023-02-06T07:57:40.080Z,0.81
2023-02-06T07:58:40.064Z,0.77
2023-02-06T07:59:43.152Z,0.77
2023-02-06T08:00:40.089Z,0.86
2023-02-06T08:01:43.211Z,0.84
2023-02-06T08:02:40.073Z,0.86
2023-02-06T08:03:40.107Z,0.88
2023-02-06T08:04:40.283Z,0.94
2023-02-06T08:05:40.963Z,0.82
2023-02-06T08:06:40.137Z,0.82
2023-02-06T08:07:40.126Z,0.91
2023-02-06T08:08:40.098Z,0.96
2023-02-06T08:09:40.143Z,1
2023-02-06T08:10:40.097Z,0.86
2023-02-06T08:11:40.139Z,0.96
2023-02-06T08:12:43.001Z,0.94
2023-02-06T08:13:40.122Z,0.91
2023-02-06T08:14:40.086Z,1.02
2023-02-06T08:15:40.897Z,0.91
2023-02-06T08:16:40.271Z,0.84
2023-02-06T08:17:41.192Z,0.95
2023-02-06T08:18:40.164Z,0.94
2023-02-06T08:19:40.175Z,0.95
2023-02-06T08:20:40.134Z,1.02
2023-02-06T08:21:40.115Z,1.02
2023-02-06T08:22:40.153Z,0.94
2023-02-06T08:23:43.309Z,0.99
2023-02-06T08:24:40.115Z,1.02
2023-02-06T08:25:41.179Z,0.99
2023-02-06T08:26:40.126Z,0.94
2023-02-06T08:27:40.233Z,0.94
2023-02-06T08:28:42.215Z,1.04
2023-02-06T08:29:40.123Z,0.91
2023-02-06T08:30:40.436Z,1.03
2023-02-06T08:31:40.701Z,0.95
2023-02-06T08:32:40.148Z,1.03
2023-02-06T08:33:40.138Z,1.14
2023-02-06T08:34:43.035Z,0.99
2023-02-06T08:35:40.556Z,1.12
2023-02-06T08:36:41.300Z,1.12
2023-02-06T08:37:40.173Z,1.07
2023-02-06T08:38:40.135Z,0.95
2023-02-06T08:39:43.219Z,1
2023-02-06T08:40:40.144Z,0.96
2023-02-06T08:41:40.164Z,0.99
2023-02-06T08:42:40.168Z,1.03
2023-02-06T08:43:40.200Z,1.03
2023-02-06T08:44:40.174Z,1.12
2023-02-06T08:45:43.653Z,1.14
2023-02-06T08:46:40.163Z,1.18
2023-02-06T08:47:40.162Z,1.32
2023-02-06T08:48:40.344Z,1.34
2023-02-06T08:49:40.153Z,1.27
2023-02-06T08:50:43.247Z,1.32
2023-02-06T08:51:40.247Z,1.49
2023-02-06T08:52:40.185Z,1.63
2023-02-06T08:53:40.148Z,1.64
2023-02-06T08:54:43.324Z,1.58
2023-02-06T08:55:40.881Z,1.64
2023-02-06T08:56:40.159Z,1.64
2023-02-06T08:57:40.196Z,1.67
2023-02-06T08:58:40.192Z,1.71
2023-02-06T08:59:40.204Z,1.71
2023-02-06T09:00:40.204Z,1.81
2023-02-06T09:01:40.240Z,1.78
2023-02-06T09:02:40.383Z,1.7
2023-02-06T09:03:40.186Z,1.67
2023-02-06T09:04:40.202Z,1.71
2023-02-06T09:05:40.616Z,1.74
2023-02-06T09:06:40.169Z,1.76
2023-02-06T09:07:40.277Z,1.71
2023-02-06T09:08:40.191Z,1.78
2023-02-06T09:09:40.241Z,1.7
2023-02-06T09:10:40.228Z,1.76
2023-02-06T09:11:40.190Z,1.71
2023-02-06T09:12:40.245Z,1.79
2023-02-06T09:13:40.229Z,1.84
2023-02-06T09:14:40.195Z,1.88
2023-02-06T09:15:41.624Z,1.97
2023-02-06T09:16:40.223Z,2
2023-02-06T09:17:43.066Z,1.93
2023-02-06T09:18:40.233Z,2.05
2023-02-06T09:19:40.200Z,2.03
2023-02-06T09:20:40.212Z,1.85
2023-02-06T09:21:40.249Z,1.97
2023-02-06T09:22:40.236Z,2.05
2023-02-06T09:23:40.294Z,2.08
2023-02-06T09:24:40.262Z,2.07
2023-02-06T09:25:41.011Z,2.15
2023-02-06T09:27:00.863Z,1.93
2023-02-06T09:27:40.228Z,1.97
2023-02-06T09:28:43.297Z,2.1
2023-02-06T09:29:40.227Z,2.18
2023-02-06T09:30:40.287Z,2.18
2023-02-06T09:31:40.522Z,2.07
2023-02-06T09:32:40.286Z,2.12
2023-02-06T09:33:43.524Z,2.14
2023-02-06T09:34:40.225Z,2.16
2023-02-06T09:35:41.160Z,2.14
2023-02-06T09:36:40.236Z,2.12
2023-02-06T09:37:40.261Z,1.93
2023-02-06T09:38:40.282Z,2.04
2023-02-06T09:39:43.296Z,2.19
2023-02-06T09:40:40.435Z,2.08
2023-02-06T09:41:40.237Z,2.23
2023-02-06T09:42:40.249Z,2.3
2023-02-06T09:43:40.239Z,2.33
2023-02-06T09:44:43.247Z,2.26
2023-02-06T09:45:41.031Z,2.39
2023-02-06T09:46:40.329Z,2.37
2023-02-06T09:47:40.328Z,2.32
2023-02-06T09:48:40.281Z,2.47
2023-02-06T09:49:40.257Z,2.4
2023-02-06T09:50:40.251Z,2.46
2023-02-06T09:51:40.245Z,2.41
2023-02-06T09:52:40.284Z,2.5
2023-02-06T09:53:40.245Z,2.55
2023-02-06T09:54:40.264Z,2.36
2023-02-06T09:55:48.117Z,2.3
2023-02-06T09:56:40.254Z,2.41
2023-02-06T09:57:40.268Z,2.37
2023-02-06T09:58:40.272Z,2.36
2023-02-06T09:59:40.271Z,2.43
2023-02-06T10:00:40.317Z,2.5
2023-02-06T10:01:40.404Z,2.37
2023-02-06T10:02:40.298Z,2.37
2023-02-06T10:03:40.368Z,2.32
2023-02-06T10:04:40.303Z,2.3
2023-02-06T10:05:41.113Z,2.36
2023-02-06T10:06:43.408Z,2.36
2023-02-06T10:07:40.274Z,2.46
2023-02-06T10:08:40.284Z,2.5
2023-02-06T10:09:40.291Z,2.51
2023-02-06T10:10:40.266Z,2.46
2023-02-06T10:11:40.384Z,2.64
2023-02-06T10:12:40.328Z,2.59
2023-02-06T10:13:40.281Z,2.44
2023-02-06T10:14:40.282Z,2.57
2023-02-06T10:15:41.132Z,2.68
2023-02-06T10:16:40.310Z,2.57
2023-02-06T10:17:43.127Z,2.58
2023-02-06T10:18:40.286Z,2.58
2023-02-06T10:19:40.323Z,2.51
2023-02-06T10:20:40.331Z,2.52
2023-02-06T10:21:40.309Z,2.65
2023-02-06T10:22:41.339Z,2.75
2023-02-06T10:23:40.293Z,2.73
2023-02-06T10:24:40.292Z,2.72
2023-02-06T10:25:41.114Z,2.69
2023-02-06T10:26:40.307Z,2.7
2023-02-06T10:27:40.367Z,2.76
2023-02-06T10:28:43.105Z,2.82
2023-02-06T10:29:40.389Z,2.9
2023-02-06T10:30:40.334Z,2.85
2023-02-06T10:31:40.646Z,2.9
2023-02-06T10:32:40.347Z,2.93
2023-02-06T10:33:40.321Z,3
2023-02-06T10:34:40.317Z,3.03
2023-02-06T10:35:41.349Z,2.98
2023-02-06T10:36:40.348Z,3.01
2023-02-06T10:37:40.382Z,3.06
2023-02-06T10:38:40.357Z,3.06
2023-02-06T10:39:43.102Z,3.09
2023-02-06T10:40:40.316Z,3.26
2023-02-06T10:41:40.334Z,3.18
2023-02-06T10:42:40.418Z,3.41
2023-02-06T10:43:40.371Z,3.5
2023-02-06T10:44:40.387Z,3.45
2023-02-06T10:45:41.319Z,3.56
2023-02-06T10:46:40.561Z,3.56
2023-02-06T10:47:40.361Z,3.66
2023-02-06T10:48:40.365Z,3.64
2023-02-06T10:49:40.391Z,3.64
2023-02-06T10:50:43.168Z,3.71
2023-02-06T10:51:40.449Z,3.76
2023-02-06T10:52:40.584Z,3.89
2023-02-06T10:53:40.362Z,3.85
2023-02-06T10:54:40.342Z,3.99
2023-02-06T10:55:40.350Z,4.02
2023-02-06T10:56:40.366Z,4
2023-02-06T10:57:40.363Z,4.06
2023-02-06T10:58:40.366Z,4.13
2023-02-06T10:59:40.392Z,4.13
2023-02-06T11:00:41.288Z,4.07
2023-02-06T11:01:43.879Z,4
2023-02-06T11:02:40.408Z,4.09
2023-02-06T11:03:42.154Z,4.25
2023-02-06T11:04:40.378Z,4.22
2023-02-06T11:05:41.791Z,4.4
2023-02-06T11:06:43.287Z,4.42
2023-02-06T11:07:40.412Z,4.32
2023-02-06T11:08:40.405Z,4.4
2023-02-06T11:09:40.389Z,4.4
2023-02-06T11:10:41.561Z,4.39
2023-02-06T11:11:40.410Z,4.39
2023-02-06T11:12:43.458Z,4.38
2023-02-06T11:13:40.541Z,4.45
2023-02-06T11:14:40.385Z,4.53
2023-02-06T11:15:41.165Z,4.57
2023-02-06T11:16:40.532Z,4.4
2023-02-06T11:17:41.929Z,4.49
2023-02-06T11:18:40.398Z,4.42
2023-02-06T11:19:40.419Z,4.5
2023-02-06T11:20:41.264Z,4.48
2023-02-06T11:21:40.463Z,4.48
2023-02-06T11:22:56.262Z,4.45
2023-02-06T11:23:40.445Z,4.46
2023-02-06T11:24:40.458Z,4.6
2023-02-06T11:25:41.385Z,4.28
2023-02-06T11:26:40.403Z,4.43
2023-02-06T11:27:40.412Z,4.4
2023-02-06T11:28:40.423Z,4.42
2023-02-06T11:29:40.409Z,4.42
2023-02-06T11:30:41.456Z,4.39
2023-02-06T11:31:40.879Z,4.43
2023-02-06T11:32:40.420Z,4.34
2023-02-06T11:33:40.439Z,4.36
2023-02-06T11:34:40.441Z,4.34
2023-02-06T11:35:41.515Z,4.36
2023-02-06T11:36:40.408Z,4.38
2023-02-06T11:37:40.491Z,4.39
2023-02-06T11:38:40.496Z,4.24
2023-02-06T11:39:40.445Z,4.27
2023-02-06T11:40:41.317Z,4.32
2023-02-06T11:41:40.425Z,4.31
2023-02-06T11:42:40.663Z,4.39
2023-02-06T11:43:40.454Z,4.34
2023-02-06T11:44:43.461Z,4.34
2023-02-06T11:45:41.641Z,4.25
2023-02-06T11:46:40.440Z,4.3
2023-02-06T11:47:42.537Z,4.22
2023-02-06T11:48:40.456Z,4.27
2023-02-06T11:49:40.429Z,4.1
2023-02-06T11:50:41.133Z,4.27
2023-02-06T11:51:40.450Z,4.34
2023-02-06T11:52:40.430Z,4.16
2023-02-06T11:53:40.465Z,4.3
2023-02-06T11:54:40.490Z,4.25
2023-02-06T11:55:44.744Z,4.22
2023-02-06T11:56:40.456Z,4.24
2023-02-06T11:57:40.456Z,4.18
2023-02-06T11:58:40.560Z,4.22
2023-02-06T11:59:40.493Z,4.25
2023-02-06T12:00:43.242Z,4.22
2023-02-06T12:01:40.555Z,4.2
2023-02-06T12:02:40.670Z,4.1
2023-02-06T12:03:40.680Z,4.18
2023-02-06T12:04:40.533Z,4.14
2023-02-06T12:05:41.440Z,4.22
2023-02-06T12:06:43.334Z,4.13
2023-02-06T12:07:40.476Z,4.12
2023-02-06T12:08:40.496Z,4.13
2023-02-06T12:09:40.472Z,4.16
2023-02-06T12:10:40.495Z,4.1
2023-02-06T12:11:43.665Z,4.16
2023-02-06T12:12:40.515Z,4.14
2023-02-06T12:13:40.495Z,4.14
2023-02-06T12:14:40.522Z,4.2
2023-02-06T12:15:51.700Z,4.24
2023-02-06T12:16:40.692Z,4.13
2023-02-06T12:17:40.490Z,4.21
2023-02-06T12:18:40.508Z,4.28
2023-02-06T12:19:40.501Z,4.32
2023-02-06T12:20:40.508Z,4.27
2023-02-06T12:21:40.477Z,4.16
2023-02-06T12:22:43.368Z,4.39
2023-02-06T12:23:40.526Z,4.28
2023-02-06T12:24:40.504Z,4.36
2023-02-06T12:25:41.390Z,4.32
2023-02-06T12:26:40.514Z,4.31
2023-02-06T12:27:42.902Z,4.36
2023-02-06T12:28:41.653Z,4.36
2023-02-06T12:29:40.511Z,4.36
2023-02-06T12:30:42.254Z,4.32
2023-02-06T12:31:41.033Z,4.39
2023-02-06T12:32:40.503Z,4.34
2023-02-06T12:33:43.561Z,4.46
2023-02-06T12:34:40.506Z,4.43
2023-02-06T12:35:41.321Z,4.56
2023-02-06T12:36:40.530Z,4.45
2023-02-06T12:37:40.530Z,4.49
2023-02-06T12:38:40.553Z,4.52
2023-02-06T12:39:40.539Z,4.64
2023-02-06T12:40:40.584Z,4.86
2023-02-06T12:41:40.588Z,4.67
2023-02-06T12:42:40.668Z,4.61
2023-02-06T12:43:40.624Z,4.61
2023-02-06T12:44:43.626Z,4.68
2023-02-06T12:45:41.306Z,4.5
2023-02-06T12:46:40.632Z,4.66
2023-02-06T12:47:40.544Z,4.57
2023-02-06T12:48:40.541Z,4.63
2023-02-06T12:49:40.528Z,4.67
2023-02-06T12:50:40.547Z,4.67
2023-02-06T12:51:40.568Z,4.56
2023-02-06T12:52:40.525Z,4.74
2023-02-06T12:53:40.680Z,4.9
2023-02-06T12:54:40.532Z,4.82
2023-02-06T12:55:46.796Z,4.76
2023-02-06T12:56:40.563Z,4.82
2023-02-06T12:57:40.571Z,4.83
2023-02-06T12:58:40.594Z,5.18
2023-02-06T12:59:59.057Z,4.84
2023-02-06T13:00:40.530Z,4.78
2023-02-06T13:01:40.718Z,4.82
2023-02-06T13:02:40.840Z,4.75
2023-02-06T13:03:40.604Z,4.64
2023-02-06T13:04:40.573Z,4.58
2023-02-06T13:05:41.658Z,4.64
2023-02-06T13:06:43.680Z,4.56
2023-02-06T13:07:55.278Z,4.6
2023-02-06T13:08:40.593Z,4.38
2023-02-06T13:09:43.802Z,4.43
2023-02-06T13:10:41.286Z,4.49
2023-02-06T13:11:40.691Z,4.52
2023-02-06T13:12:40.586Z,4.43
2023-02-06T13:13:40.588Z,4.42
2023-02-06T13:14:42.399Z,4.56